Time;durP1;ratioP1;P1;durP2;ratioP2;P2;SDS_P1;SDS_P2;PMS_P1;PMS_P2;Temp;Humidity;BMP_temperature;BMP_pressure;BME280_temperature;BME280_humidity;BME280_pressure;Samples;Min_cycle;Max_cycle;Signal;HPM_P1;HPM_P2
2023/07/07 00:01:50;;;;;;;6.93;5.07;;;;;;;16.73;62.58;101800.88;5026197;28;20116;-80
2023/07/07 00:04:15;;;;;;;6.05;5.13;;;;;;;16.79;62.91;101811.28;5015975;28;20112;-80
2023/07/07 00:06:41;;;;;;;7.90;4.90;;;;;;;16.81;62.14;101806.72;5022983;28;20494;-80
2023/07/07 00:09:06;;;;;;;6.75;4.63;;;;;;;16.79;62.82;101806.78;5018773;28;20487;-80
2023/07/07 00:11:32;;;;;;;6.70;5.32;;;;;;;16.79;62.73;101806.78;5016247;28;20430;-80
2023/07/07 00:13:57;;;;;;;6.38;4.88;;;;;;;16.74;63.41;101811.50;5023101;28;20065;-81
2023/07/07 00:16:27;;;;;;;8.48;5.80;;;;;;;16.48;64.60;101814.56;5018239;28;20022;-80
2023/07/07 00:18:53;;;;;;;6.20;5.60;;;;;;;16.26;64.84;101810.25;5016816;28;20509;-80
2023/07/07 00:21:18;;;;;;;10.85;5.75;;;;;;;16.00;65.81;101816.00;5024195;28;20098;-81
2023/07/07 00:23:43;;;;;;;8.77;6.05;;;;;;;15.76;67.23;101812.66;5020217;28;20176;-80
2023/07/07 00:26:09;;;;;;;8.43;6.32;;;;;;;15.76;67.10;101815.31;5027362;28;20532;-80
2023/07/07 00:28:35;;;;;;;7.70;6.10;;;;;;;15.62;67.78;101813.28;5013416;28;20055;-80
2023/07/07 00:31:01;;;;;;;7.95;5.80;;;;;;;15.71;67.75;101814.66;5010232;28;20040;-80
2023/07/07 00:33:27;;;;;;;8.27;5.80;;;;;;;15.81;67.62;101813.34;5017310;28;20033;-80
2023/07/07 00:35:53;;;;;;;6.75;5.30;;;;;;;15.71;68.31;101810.19;5027191;28;20353;-80
2023/07/07 00:38:19;;;;;;;6.30;5.53;;;;;;;15.76;67.43;101807.31;5010347;28;20022;-80
2023/07/07 00:40:45;;;;;;;7.85;5.90;;;;;;;15.92;66.93;101804.81;5017678;28;20469;-80
2023/07/07 00:43:17;;;;;;;6.80;5.90;;;;;;;16.10;66.38;101811.97;5026849;28;20119;-80
2023/07/07 00:45:43;;;;;;;9.18;5.70;;;;;;;16.10;66.90;101809.28;5034266;28;20025;-80
2023/07/07 00:48:28;;;;;;;8.98;5.65;;;;;;;16.20;65.38;101817.72;5017241;28;20543;-80
2023/07/07 00:51:07;;;;;;;7.68;5.20;;;;;;;16.20;65.47;101804.38;5022569;28;20045;-80
2023/07/07 00:53:34;;;;;;;5.97;5.38;;;;;;;16.15;66.27;101812.59;5024987;28;20021;-80
2023/07/07 00:56:04;;;;;;;6.97;5.40;;;;;;;16.13;66.70;101809.13;5017607;28;20023;-80
2023/07/07 00:58:30;;;;;;;7.07;6.00;;;;;;;16.14;65.74;101804.69;5015625;28;20105;-80
2023/07/07 01:01:05;;;;;;;6.95;5.13;;;;;;;16.23;65.75;101813.09;5020471;28;20476;-80
2023/07/07 01:03:40;;;;;;;6.30;5.22;;;;;;;16.24;64.96;101814.81;5015998;28;20065;-80
2023/07/07 01:06:10;;;;;;;6.45;4.97;;;;;;;16.16;65.77;101808.97;5019984;28;20030;-80
2023/07/07 01:08:38;;;;;;;5.50;4.95;;;;;;;16.18;65.65;101820.47;5030015;28;20021;-80
2023/07/07 01:11:03;;;;;;;7.65;5.50;;;;;;;16.20;65.63;101815.91;5030061;28;20029;-80
2023/07/07 01:13:29;;;;;;;8.18;5.50;;;;;;;16.26;65.32;101818.28;5021122;28;20087;-80
2023/07/07 01:16:12;;;;;;;6.50;4.55;;;;;;;16.31;64.87;101813.56;5014166;28;20029;-80
2023/07/07 01:19:01;;;;;;;6.88;4.80;;;;;;;16.31;65.30;101816.25;5024795;28;20560;-80
2023/07/07 01:21:41;;;;;;;8.10;5.78;;;;;;;16.28;65.05;101820.88;5004560;28;20041;-80
2023/07/07 01:24:42;;;;;;;8.82;5.68;;;;;;;16.27;63.94;101825.38;5024321;28;20124;-80
2023/07/07 01:27:19;;;;;;;6.57;5.00;;;;;;;16.23;63.62;101815.78;5014119;28;20088;-80
2023/07/07 01:30:08;;;;;;;7.15;5.60;;;;;;;16.24;63.33;101817.50;5013182;28;20029;-80
2023/07/07 01:32:35;;;;;;;6.97;5.82;;;;;;;16.15;64.15;101817.94;5022841;28;20439;-80
2023/07/07 01:35:09;;;;;;;9.48;5.35;;;;;;;16.11;64.55;101820.81;5018175;28;20042;-80
2023/07/07 01:37:35;;;;;;;10.70;6.60;;;;;;;16.05;65.26;101805.97;5021397;28;20021;-80
2023/07/07 01:40:02;;;;;;;7.78;5.47;;;;;;;16.05;64.80;101808.66;5014918;28;20060;-80
2023/07/07 01:42:36;;;;;;;7.38;5.80;;;;;;;16.03;64.89;101813.16;5012509;28;20114;-80
2023/07/07 01:45:18;;;;;;;8.75;5.45;;;;;;;15.96;64.65;101814.41;5020585;28;20025;-80
2023/07/07 01:47:52;;;;;;;8.07;6.15;;;;;;;15.91;65.44;101811.97;5026914;28;20025;-80
2023/07/07 01:50:24;;;;;;;6.68;5.53;;;;;;;15.89;65.33;101815.63;5018946;28;20029;-80
2023/07/07 01:52:55;;;;;;;8.05;5.82;;;;;;;15.82;65.79;101815.06;5022851;28;20021;-80
2023/07/07 01:55:30;;;;;;;8.10;5.65;;;;;;;15.80;65.15;101816.91;5012689;28;20052;-80
2023/07/07 01:57:58;;;;;;;7.88;6.53;;;;;;;15.73;65.86;101805.69;5014446;28;20034;-80
2023/07/07 02:00:25;;;;;;;10.20;6.25;;;;;;;15.73;65.53;101810.16;5015894;28;21379;-80
2023/07/07 02:02:51;;;;;;;8.63;6.50;;;;;;;15.61;66.48;101810.66;5018135;28;20469;-80
2023/07/07 02:05:17;;;;;;;6.75;6.03;;;;;;;15.57;65.14;101809.94;5017459;28;20095;-80
2023/07/07 02:07:43;;;;;;;8.07;6.32;;;;;;;15.60;65.13;101809.81;5014483;28;20485;-80
2023/07/07 02:10:08;;;;;;;7.05;5.78;;;;;;;15.63;65.73;101815.00;5021387;28;20029;-80
2023/07/07 02:12:34;;;;;;;7.45;5.43;;;;;;;15.65;66.03;101806.97;5020389;28;20140;-80
2023/07/07 02:14:59;;;;;;;9.48;6.70;;;;;;;15.62;66.17;101802.63;5025811;28;20029;-80
2023/07/07 02:17:28;;;;;;;9.05;6.10;;;;;;;15.53;66.81;101806.56;5016145;28;20505;-80
2023/07/07 02:19:54;;;;;;;9.80;6.40;;;;;;;15.46;67.00;101809.56;5015821;28;20385;-80
2023/07/07 02:22:19;;;;;;;7.82;6.10;;;;;;;15.50;66.53;101800.50;5027790;28;20036;-80
2023/07/07 02:24:44;;;;;;;6.55;5.65;;;;;;;15.47;66.96;101809.50;5030284;28;20084;-80
2023/07/07 02:27:10;;;;;;;8.02;5.85;;;;;;;15.48;67.45;101808.59;5023879;28;20036;-80
2023/07/07 02:29:37;;;;;;;10.75;6.57;;;;;;;15.37;67.63;101802.00;5026313;28;20056;-80
2023/07/07 02:32:03;;;;;;;7.13;6.22;;;;;;;15.29;67.74;101803.22;5033958;28;20037;-80
2023/07/07 02:34:28;;;;;;;7.47;5.95;;;;;;;15.28;67.19;101804.13;5038541;28;20507;-80
2023/07/07 02:36:53;;;;;;;7.55;6.18;;;;;;;15.30;66.95;101810.25;5025224;28;20026;-80
2023/07/07 02:39:20;;;;;;;10.00;6.45;;;;;;;15.26;67.67;101815.78;5026504;28;20029;-80
2023/07/07 02:41:45;;;;;;;8.60;6.20;;;;;;;15.24;67.74;101807.84;5026887;28;20045;-80
2023/07/07 02:44:10;;;;;;;7.05;6.15;;;;;;;15.27;67.28;101813.06;5036369;28;20394;-80
2023/07/07 02:46:36;;;;;;;8.75;6.25;;;;;;;15.28;66.57;101800.59;5019603;28;20477;-80
2023/07/07 02:49:01;;;;;;;6.80;5.72;;;;;;;15.18;65.51;101813.47;5029171;28;20033;-80
2023/07/07 02:51:26;;;;;;;6.68;5.20;;;;;;;15.19;65.78;101809.84;5027241;28;20022;-80
2023/07/07 02:53:51;;;;;;;10.70;5.75;;;;;;;15.14;66.02;101808.34;5033696;28;20491;-80
2023/07/07 02:56:17;;;;;;;6.47;5.38;;;;;;;15.04;65.91;101810.53;5026791;28;20029;-80
2023/07/07 02:58:42;;;;;;;10.95;6.63;;;;;;;15.01;67.50;101808.00;5025175;28;20025;-80
2023/07/07 03:01:12;;;;;;;8.85;7.13;;;;;;;14.99;67.87;101824.03;5017012;28;20524;-80
2023/07/07 03:03:40;;;;;;;22.63;6.80;;;;;;;14.90;66.24;101821.78;5024367;28;20032;-80
2023/07/07 03:06:07;;;;;;;7.40;6.53;;;;;;;14.89;66.95;101824.50;5019133;28;20072;-80
2023/07/07 03:08:32;;;;;;;6.15;5.50;;;;;;;14.94;66.89;101825.19;5012426;28;20040;-80
2023/07/07 03:11:06;;;;;;;7.40;5.65;;;;;;;14.89;66.26;101821.84;5016115;28;20112;-80
2023/07/07 03:13:32;;;;;;;7.60;5.40;;;;;;;14.87;66.97;101819.22;5023625;28;20022;-80
2023/07/07 03:15:57;;;;;;;7.32;5.45;;;;;;;14.87;67.12;101829.03;5020446;28;20030;-80
2023/07/07 03:18:22;;;;;;;6.68;6.00;;;;;;;14.70;68.14;101827.09;5028543;28;20029;-80
2023/07/07 03:20:48;;;;;;;10.50;6.57;;;;;;;14.64;67.96;101828.22;5018372;28;20557;-80
2023/07/07 03:23:14;;;;;;;9.20;6.28;;;;;;;14.63;68.35;101831.78;5020214;28;20029;-80
2023/07/07 03:25:39;;;;;;;11.02;6.00;;;;;;;14.68;67.75;101829.78;5016112;28;20017;-80
2023/07/07 03:28:05;;;;;;;11.38;6.45;;;;;;;14.72;67.90;101826.06;5013485;28;20504;-80
2023/07/07 03:30:30;;;;;;;12.02;5.90;;;;;;;14.71;68.13;101829.66;5013897;28;20032;-80
2023/07/07 03:32:56;;;;;;;9.18;5.82;;;;;;;14.62;67.45;101835.38;5023707;28;20381;-80
2023/07/07 03:35:21;;;;;;;6.75;5.97;;;;;;;14.52;67.31;101834.88;5021116;28;20377;-81
2023/07/07 03:37:47;;;;;;;6.13;5.50;;;;;;;14.51;67.83;101835.81;5016947;28;20030;-80
2023/07/07 03:40:12;;;;;;;9.10;6.18;;;;;;;14.60;67.19;101831.94;5013255;28;20046;-80
2023/07/07 03:42:37;;;;;;;10.90;7.35;;;;;;;14.62;67.77;101834.50;5032100;28;20078;-80
2023/07/07 03:45:03;;;;;;;10.88;7.47;;;;;;;14.61;68.57;101830.13;5022242;28;20040;-80
2023/07/07 03:47:28;;;;;;;6.88;6.18;;;;;;;14.56;68.81;101832.97;5018314;28;20061;-80
2023/07/07 03:49:54;;;;;;;7.85;6.22;;;;;;;14.53;67.83;101831.28;5017355;28;20106;-80
2023/07/07 03:52:19;;;;;;;7.95;6.43;;;;;;;14.61;67.16;101835.44;5022725;28;20080;-80
2023/07/07 03:54:44;;;;;;;9.82;6.80;;;;;;;14.51;67.42;101829.63;5015765;28;20029;-80
2023/07/07 03:57:13;;;;;;;7.70;6.45;;;;;;;14.50;67.06;101834.09;5022187;28;20025;-80
2023/07/07 03:59:39;;;;;;;14.82;7.43;;;;;;;14.44;68.57;101836.09;5031743;28;20371;-80
2023/07/07 04:02:04;;;;;;;10.10;7.05;;;;;;;14.29;68.96;101829.59;5020032;28;20020;-80
2023/07/07 04:04:30;;;;;;;7.45;6.60;;;;;;;14.25;69.10;101831.50;5018935;28;20041;-80
2023/07/07 04:06:56;;;;;;;7.32;5.32;;;;;;;14.29;69.16;101830.47;5025864;28;20524;-80
2023/07/07 04:09:22;;;;;;;6.68;5.82;;;;;;;14.27;69.48;101829.66;5015373;28;20056;-80
2023/07/07 04:11:47;;;;;;;11.70;6.82;;;;;;;14.23;70.46;101836.03;5027597;28;20516;-80
2023/07/07 04:14:12;;;;;;;8.55;6.63;;;;;;;14.27;70.10;101834.97;5032438;28;20379;-80
2023/07/07 04:16:37;;;;;;;8.98;6.80;;;;;;;14.34;70.37;101834.72;5021712;28;20033;-80
2023/07/07 04:19:03;;;;;;;9.40;7.13;;;;;;;14.26;70.62;101833.22;5017053;28;20037;-80
2023/07/07 04:21:30;;;;;;;9.57;7.53;;;;;;;14.33;69.82;101843.66;5027552;28;20024;-80
2023/07/07 04:23:57;;;;;;;12.82;6.63;;;;;;;14.37;68.92;101845.25;5033298;28;20464;-80
2023/07/07 04:26:24;;;;;;;9.15;6.15;;;;;;;14.38;69.08;101846.97;5023649;28;20025;-80
2023/07/07 04:28:53;;;;;;;8.68;7.25;;;;;;;14.41;69.33;101844.19;5030318;28;20033;-80
2023/07/07 04:31:21;;;;;;;8.18;6.80;;;;;;;14.45;69.99;101844.00;5029698;28;20404;-80
2023/07/07 04:33:47;;;;;;;10.65;6.53;;;;;;;14.55;69.17;101855.19;5028983;28;20124;-80
2023/07/07 04:36:15;;;;;;;8.00;6.28;;;;;;;14.59;69.88;101846.13;5022853;28;20053;-80
2023/07/07 04:38:41;;;;;;;8.50;6.78;;;;;;;14.59;69.80;101855.91;5030633;28;20031;-80
2023/07/07 04:41:15;;;;;;;10.77;6.50;;;;;;;14.74;69.44;101850.84;5033031;28;20050;-80
2023/07/07 04:43:43;;;;;;;9.80;6.40;;;;;;;14.77;68.73;101852.50;5016834;28;20147;-80
2023/07/07 04:46:14;;;;;;;11.43;7.57;;;;;;;14.79;70.36;101845.34;5013170;28;20072;-80
2023/07/07 04:48:39;;;;;;;10.43;7.25;;;;;;;14.82;69.37;101842.53;5011466;28;20033;-80
2023/07/07 04:51:07;;;;;;;10.80;7.10;;;;;;;14.95;68.43;101848.22;5020963;28;20488;-80
2023/07/07 04:53:33;;;;;;;7.93;6.45;;;;;;;14.99;68.56;101842.69;5025402;28;20586;-80
2023/07/07 04:56:00;;;;;;;13.23;6.68;;;;;;;14.99;69.27;101849.81;5020652;28;20032;-80
2023/07/07 04:58:26;;;;;;;7.05;6.35;;;;;;;14.97;69.82;101843.69;5025450;28;20033;-80
2023/07/07 05:00:52;;;;;;;11.15;7.18;;;;;;;15.01;69.65;101845.28;5025565;28;20025;-80
2023/07/07 05:03:18;;;;;;;10.68;6.90;;;;;;;15.12;69.64;101844.84;5015697;28;20026;-80
2023/07/07 05:05:43;;;;;;;7.75;6.25;;;;;;;15.18;69.47;101856.09;5018905;28;20060;-80
2023/07/07 05:08:08;;;;;;;9.63;7.38;;;;;;;15.18;70.21;101842.75;5008302;28;20026;-80
2023/07/07 05:10:34;;;;;;;8.88;6.78;;;;;;;15.23;70.30;101846.09;5016573;28;20153;-80
2023/07/07 05:12:59;;;;;;;9.18;6.75;;;;;;;15.25;70.72;101851.38;5029476;28;20029;-80
2023/07/07 05:15:24;;;;;;;8.68;6.88;;;;;;;15.37;70.69;101853.47;5021894;28;20040;-80
2023/07/07 05:17:50;;;;;;;8.43;7.47;;;;;;;15.44;70.54;101852.28;5019577;28;20436;-80
2023/07/07 05:20:16;;;;;;;12.02;7.00;;;;;;;15.51;68.68;101847.53;5016407;28;20044;-80
2023/07/07 05:22:41;;;;;;;8.18;6.28;;;;;;;15.62;68.37;101845.28;5013365;28;20111;-80
2023/07/07 05:25:06;;;;;;;8.88;6.28;;;;;;;15.67;69.92;101848.63;5014109;28;20116;-80
2023/07/07 05:27:32;;;;;;;11.32;7.03;;;;;;;15.74;68.97;101842.06;5026172;28;20239;-80
2023/07/07 05:29:57;;;;;;;8.85;6.45;;;;;;;15.84;68.68;101849.66;5022972;28;20072;-80
2023/07/07 05:32:22;;;;;;;8.93;6.45;;;;;;;15.94;68.15;101850.94;5019753;28;20040;-80
2023/07/07 05:34:49;;;;;;;9.25;6.68;;;;;;;16.01;67.91;101853.25;5013026;28;20099;-80
2023/07/07 05:37:15;;;;;;;15.38;6.70;;;;;;;16.13;68.03;101853.63;5011260;28;20059;-83
2023/07/07 05:39:40;;;;;;;8.75;6.35;;;;;;;16.26;66.71;101857.44;5019810;28;20025;-80
2023/07/07 05:42:06;;;;;;;8.20;6.28;;;;;;;16.35;66.31;101853.47;5031638;28;20039;-80
2023/07/07 05:44:31;;;;;;;11.00;6.93;;;;;;;16.45;66.68;101852.06;5024554;28;20464;-80
2023/07/07 05:46:57;;;;;;;9.63;6.65;;;;;;;16.52;67.21;101853.53;5031570;28;20065;-80
2023/07/07 05:49:22;;;;;;;10.50;6.90;;;;;;;16.61;66.58;101853.06;5032794;28;20033;-80
2023/07/07 05:51:47;;;;;;;8.40;6.50;;;;;;;16.70;66.95;101859.78;5022197;28;20048;-80
2023/07/07 05:54:13;;;;;;;9.40;6.65;;;;;;;16.81;66.25;101868.13;5017952;28;20463;-80
2023/07/07 05:56:39;;;;;;;8.77;6.60;;;;;;;16.88;65.26;101855.31;5027156;28;20029;-81
2023/07/07 05:59:05;;;;;;;12.18;6.80;;;;;;;16.97;66.38;101860.19;5029348;28;20088;-80
2023/07/07 06:01:30;;;;;;;13.45;6.47;;;;;;;17.07;65.23;101861.50;5018518;28;20052;-81
2023/07/07 06:03:56;;;;;;;14.32;6.82;;;;;;;17.18;65.39;101860.94;5019161;28;20408;-80
2023/07/07 06:06:21;;;;;;;10.80;6.70;;;;;;;17.26;65.76;101862.25;5032390;28;20071;-80
2023/07/07 06:08:46;;;;;;;9.75;7.13;;;;;;;17.30;65.86;101858.50;5027380;28;20559;-80
2023/07/07 06:11:12;;;;;;;10.07;6.47;;;;;;;17.40;64.61;101858.88;5031707;28;20619;-80
2023/07/07 06:13:37;;;;;;;9.55;6.10;;;;;;;17.53;62.85;101861.75;5035567;28;20033;-81
2023/07/07 06:16:03;;;;;;;9.75;5.57;;;;;;;17.68;63.10;101855.59;5035601;28;20036;-81
2023/07/07 06:18:28;;;;;;;10.73;6.40;;;;;;;17.81;63.21;101854.03;5026504;28;20029;-81
2023/07/07 06:20:57;;;;;;;12.05;6.43;;;;;;;18.05;62.36;101859.84;5024262;28;20029;-81
2023/07/07 06:23:24;;;;;;;11.82;5.90;;;;;;;18.33;60.73;101869.00;5027572;28;20029;-80
2023/07/07 06:25:49;;;;;;;8.88;5.57;;;;;;;18.67;60.55;101848.34;5028389;28;20037;-80
2023/07/07 06:28:16;;;;;;;7.88;5.90;;;;;;;18.96;60.14;101847.50;5030992;28;20539;-80
2023/07/07 06:30:41;;;;;;;7.55;5.95;;;;;;;19.30;59.28;101853.53;5037247;28;20349;-81
2023/07/07 06:33:07;;;;;;;9.90;5.63;;;;;;;19.59;57.15;101860.66;5030863;28;20388;-81
2023/07/07 06:35:32;;;;;;;6.90;4.82;;;;;;;19.71;57.00;101863.56;5026507;28;20035;-81
2023/07/07 06:37:57;;;;;;;9.98;5.22;;;;;;;19.92;56.54;101861.38;5033879;28;20048;-80
2023/07/07 06:40:23;;;;;;;9.60;4.93;;;;;;;20.25;55.21;101867.28;5030534;28;20401;-80
2023/07/07 06:42:51;;;;;;;7.55;5.10;;;;;;;20.51;55.06;101867.41;5030220;28;20033;-80
2023/07/07 06:45:16;;;;;;;7.35;4.93;;;;;;;20.61;55.36;101868.53;5027534;28;20033;-80
2023/07/07 06:47:42;;;;;;;8.70;4.70;;;;;;;20.77;53.41;101865.69;5030087;28;20037;-80
2023/07/07 06:50:14;;;;;;;9.25;4.90;;;;;;;20.89;54.76;101868.44;5019636;28;20129;-80
2023/07/07 06:52:39;;;;;;;7.28;4.53;;;;;;;21.04;53.21;101863.84;5035162;28;20037;-80
2023/07/07 06:55:05;;;;;;;7.22;4.10;;;;;;;21.18;55.75;101873.66;5032287;28;20018;-79
2023/07/07 06:57:30;;;;;;;6.65;4.20;;;;;;;21.25;55.27;101871.41;5033724;28;20031;-80
2023/07/07 06:59:55;;;;;;;13.05;4.88;;;;;;;21.25;53.59;101871.41;5040461;28;20256;-80
2023/07/07 07:02:21;;;;;;;4.93;3.85;;;;;;;21.43;55.87;101872.84;5032693;28;20021;-80
2023/07/07 07:04:46;;;;;;;6.88;4.18;;;;;;;21.54;54.34;101874.78;5034591;28;20476;-80
2023/07/07 07:07:11;;;;;;;8.60;4.55;;;;;;;21.55;53.33;101874.69;5031163;28;20029;-80
2023/07/07 07:09:36;;;;;;;8.75;4.43;;;;;;;21.48;55.55;101881.47;5031290;28;20029;-80
2023/07/07 07:12:02;;;;;;;6.35;3.58;;;;;;;21.37;54.86;101876.84;5036256;28;20029;-80
2023/07/07 07:14:27;;;;;;;5.40;3.78;;;;;;;21.50;55.84;101876.84;5023773;28;20025;-80
2023/07/07 07:16:53;;;;;;;6.38;4.45;;;;;;;21.84;52.68;101872.63;5038906;28;20480;-80
2023/07/07 07:19:18;;;;;;;6.78;3.60;;;;;;;22.11;50.41;101877.03;5035774;28;20353;-80
2023/07/07 07:21:43;;;;;;;5.80;4.20;;;;;;;22.37;50.22;101880.53;5023867;28;20060;-80
2023/07/07 07:24:09;;;;;;;9.75;3.95;;;;;;;22.43;51.62;101877.41;5024282;28;20026;-80
2023/07/07 07:26:34;;;;;;;4.65;3.47;;;;;;;22.54;51.01;101880.16;5017713;28;20465;-81
2023/07/07 07:28:59;;;;;;;6.85;3.20;;;;;;;22.46;48.42;101887.06;5013996;28;20053;-81
2023/07/07 07:31:26;;;;;;;5.88;3.00;;;;;;;22.58;48.63;101886.19;5019426;28;20025;-81
2023/07/07 07:33:53;;;;;;;5.18;2.75;;;;;;;22.88;46.62;101878.47;5021865;28;20072;-81
2023/07/07 07:36:19;;;;;;;4.53;2.88;;;;;;;23.60;47.92;101880.19;5018956;28;20022;-81
2023/07/07 07:38:44;;;;;;;4.45;3.08;;;;;;;24.40;47.33;101889.06;5016927;28;20037;-81
2023/07/07 07:41:10;;;;;;;10.10;3.42;;;;;;;24.90;43.37;101877.72;5022739;28;20505;-81
2023/07/07 07:43:35;;;;;;;5.60;3.17;;;;;;;25.29;41.75;101878.91;5025573;28;20104;-81
2023/07/07 07:46:00;;;;;;;4.53;3.13;;;;;;;25.62;41.96;101885.09;5021333;28;20485;-81
2023/07/07 07:48:25;;;;;;;4.25;2.67;;;;;;;26.03;40.61;101881.50;5017359;28;20073;-81
2023/07/07 07:50:51;;;;;;;4.50;3.00;;;;;;;26.84;39.85;101879.53;5022517;28;20507;-81
2023/07/07 07:53:16;;;;;;;4.50;2.77;;;;;;;27.15;37.43;101885.72;5016441;28;20025;-81
2023/07/07 07:55:41;;;;;;;4.22;2.80;;;;;;;27.32;38.57;101881.38;5024991;28;20653;-81
2023/07/07 07:58:07;;;;;;;5.25;2.72;;;;;;;27.49;37.37;101884.38;5027674;28;20096;-81
2023/07/07 08:00:32;;;;;;;4.00;2.40;;;;;;;27.74;36.08;101886.44;5028598;28;20021;-81
2023/07/07 08:02:57;;;;;;;7.18;2.90;;;;;;;28.04;34.49;101893.50;5030575;28;20025;-82
2023/07/07 08:05:23;;;;;;;6.47;2.87;;;;;;;28.42;33.65;101892.47;5032341;28;20456;-81
2023/07/07 08:07:48;;;;;;;4.57;2.67;;;;;;;28.22;33.95;101894.41;5026181;28;20295;-81
2023/07/07 08:10:13;;;;;;;9.15;2.45;;;;;;;28.57;34.61;101892.78;5033473;28;20071;-81
2023/07/07 08:12:38;;;;;;;3.45;2.40;;;;;;;29.32;33.60;101893.34;5030329;28;20057;-81
2023/07/07 08:15:05;;;;;;;5.07;3.03;;;;;;;29.46;32.79;101895.47;5021477;28;20611;-81
2023/07/07 08:17:30;;;;;;;6.78;2.92;;;;;;;29.72;31.89;101892.81;5025781;28;20033;-81
2023/07/07 08:19:56;;;;;;;4.88;2.58;;;;;;;29.39;31.30;101888.97;5040450;28;20033;-81
2023/07/07 08:22:23;;;;;;;4.20;2.80;;;;;;;29.47;31.08;101885.44;5038381;28;20029;-81
2023/07/07 08:24:53;;;;;;;5.80;2.30;;;;;;;29.59;32.39;101888.78;5022851;28;20121;-81
2023/07/07 08:27:21;;;;;;;3.17;2.83;;;;;;;30.05;31.32;101889.38;5037350;28;20029;-81
2023/07/07 08:29:46;;;;;;;3.70;2.40;;;;;;;30.14;31.38;101892.00;5030065;28;20436;-81
2023/07/07 08:32:14;;;;;;;5.18;2.70;;;;;;;30.89;30.18;101892.06;5030486;28;20116;-81
2023/07/07 08:34:40;;;;;;;4.25;2.40;;;;;;;31.51;28.94;101888.81;5037254;28;20025;-81
2023/07/07 08:37:06;;;;;;;4.13;2.22;;;;;;;31.77;29.70;101888.59;5029820;28;20424;-81
2023/07/07 08:39:33;;;;;;;3.38;2.30;;;;;;;31.99;29.21;101898.81;5028458;28;20112;-81
2023/07/07 08:42:05;;;;;;;2.78;2.22;;;;;;;31.72;28.94;101886.38;5022572;28;20037;-81
2023/07/07 08:44:34;;;;;;;3.28;2.15;;;;;;;31.70;28.98;101880.22;5035151;28;20017;-81
2023/07/07 08:47:27;;;;;;;4.82;2.20;;;;;;;32.17;29.54;101894.94;5027134;28;20029;-80
2023/07/07 08:50:14;;;;;;;4.03;2.78;;;;;;;32.57;29.42;101901.28;5035381;28;20060;-80
2023/07/07 08:52:52;;;;;;;4.97;2.33;;;;;;;32.24;28.04;101887.75;5020744;28;20112;-80
2023/07/07 08:55:56;;;;;;;6.18;2.20;;;;;;;32.39;30.16;101888.72;5013570;28;20493;-80
2023/07/07 08:58:32;;;;;;;3.38;2.28;;;;;;;31.85;28.18;101890.47;5020895;28;20388;-80
2023/07/07 09:01:22;;;;;;;3.85;1.95;;;;;;;31.61;28.43;101875.78;5017032;28;20380;-80
2023/07/07 09:04:05;;;;;;;4.57;2.13;;;;;;;31.60;30.33;101884.19;5006317;28;20533;-86
2023/07/07 09:06:58;;;;;;;4.32;2.20;;;;;;;31.23;30.76;101891.88;5009040;28;20393;-84
2023/07/07 09:09:47;;;;;;;2.95;2.03;;;;;;;31.47;31.27;101881.97;5014680;28;20449;-81
2023/07/07 09:12:27;;;;;;;4.88;2.40;;;;;;;31.65;29.60;101885.34;5027750;28;20024;-81
2023/07/07 09:14:57;;;;;;;3.70;1.92;;;;;;;30.94;29.00;101886.09;5037670;28;20029;-81
2023/07/07 09:17:28;;;;;;;5.13;2.10;;;;;;;30.71;31.44;101883.16;5020136;28;20515;-81
2023/07/07 09:19:56;;;;;;;3.13;2.25;;;;;;;31.02;29.27;101883.38;5019012;28;20030;-81
2023/07/07 09:22:27;;;;;;;4.50;2.33;;;;;;;31.15;29.19;101885.56;5030817;28;20083;-80
2023/07/07 09:25:15;;;;;;;2.65;2.05;;;;;;;31.03;30.81;101886.94;5036058;28;20444;-81
2023/07/07 09:27:47;;;;;;;2.80;2.13;;;;;;;30.62;31.52;101887.72;5025455;28;20298;-80
2023/07/07 09:30:33;;;;;;;3.00;2.17;;;;;;;30.42;31.25;101889.91;5024845;28;20108;-81
2023/07/07 09:32:59;;;;;;;2.08;1.85;;;;;;;30.14;29.70;101881.09;5023208;28;20078;-81
2023/07/07 09:35:31;;;;;;;2.47;1.80;;;;;;;30.15;31.89;101884.69;5024951;28;20551;-81
2023/07/07 09:38:14;;;;;;;4.20;2.30;;;;;;;30.43;30.72;101879.84;5021870;28;20437;-80
2023/07/07 09:40:51;;;;;;;5.22;2.10;;;;;;;30.95;30.62;101880.44;5021727;28;20081;-80
2023/07/07 09:43:32;;;;;;;4.78;2.40;;;;;;;31.69;29.62;101880.41;5010074;28;20022;-80
2023/07/07 09:46:04;;;;;;;5.85;2.22;;;;;;;31.67;27.89;101871.53;5011957;28;20176;-80
2023/07/07 09:48:54;;;;;;;4.65;2.08;;;;;;;31.81;28.50;101872.69;5011438;28;20030;-80
2023/07/07 09:51:33;;;;;;;4.25;1.95;;;;;;;31.76;28.98;101875.94;5017316;28;20083;-80
2023/07/07 09:53:59;;;;;;;4.35;2.10;;;;;;;31.48;27.92;101865.44;5016418;28;20056;-80
2023/07/07 09:56:34;;;;;;;2.63;2.03;;;;;;;31.71;27.78;101867.41;5011452;28;20049;-81
2023/07/07 09:59:11;;;;;;;3.50;2.17;;;;;;;31.61;28.70;101864.84;5010993;28;20095;-81
2023/07/07 10:01:39;;;;;;;3.65;1.90;;;;;;;31.38;29.66;101862.00;5022580;28;20034;-81
2023/07/07 10:04:15;;;;;;;6.25;2.50;;;;;;;31.71;28.94;101868.28;5014423;28;20494;-81
2023/07/07 10:06:58;;;;;;;3.15;1.98;;;;;;;32.18;27.22;101864.69;5013221;28;20037;-81
2023/07/07 10:09:23;;;;;;;4.90;2.50;;;;;;;31.80;26.22;101860.88;5015234;28;20099;-81
2023/07/07 10:11:50;;;;;;;3.88;2.03;;;;;;;32.11;28.13;101858.22;5011024;28;20030;-81
2023/07/07 10:14:17;;;;;;;3.35;2.30;;;;;;;32.85;27.91;101849.56;5010946;28;20030;-81
2023/07/07 10:16:58;;;;;;;3.92;2.13;;;;;;;32.71;26.49;101849.31;5019116;28;20400;-81
2023/07/07 10:19:24;;;;;;;3.60;2.10;;;;;;;32.30;23.99;101854.19;5014842;28;20227;-81
2023/07/07 10:21:50;;;;;;;5.00;1.90;;;;;;;32.62;26.43;101850.41;5013303;28;20388;-81
2023/07/07 10:24:15;;;;;;;3.42;2.15;;;;;;;32.52;25.48;101849.81;5027800;28;20043;-81
2023/07/07 10:26:47;;;;;;;4.35;2.10;;;;;;;32.73;24.15;101847.25;5017189;28;20492;-81
2023/07/07 10:29:17;;;;;;;2.80;1.75;;;;;;;32.71;24.26;101856.69;5018863;28;20026;-81
2023/07/07 10:31:46;;;;;;;4.53;2.28;;;;;;;32.93;23.96;101842.16;5018252;28;20041;-81
2023/07/07 10:34:31;;;;;;;5.50;2.08;;;;;;;32.91;24.96;101841.47;5020124;28;20038;-81
2023/07/07 10:36:58;;;;;;;3.63;1.88;;;;;;;32.83;22.99;101843.41;5021728;28;20102;-81
2023/07/07 10:39:25;;;;;;;3.08;2.03;;;;;;;32.92;22.10;101840.47;5025038;28;20030;-81
2023/07/07 10:41:51;;;;;;;3.80;2.20;;;;;;;33.25;24.40;101851.13;5020082;28;20056;-81
2023/07/07 10:44:16;;;;;;;4.47;2.38;;;;;;;33.26;23.83;101833.63;5014383;28;20021;-81
2023/07/07 10:46:42;;;;;;;4.07;1.92;;;;;;;33.29;25.10;101841.47;5016529;28;20558;-81
2023/07/07 10:49:15;;;;;;;6.50;2.28;;;;;;;33.35;24.74;101835.25;5018282;28;20032;-81
2023/07/07 10:52:02;;;;;;;3.50;2.42;;;;;;;33.17;24.88;101837.50;5020659;28;20033;-80
2023/07/07 10:55:05;;;;;;;3.03;2.08;;;;;;;32.65;24.11;101839.09;5013583;28;20481;-80
2023/07/07 10:57:52;;;;;;;2.58;2.20;;;;;;;33.23;25.22;101832.09;5024428;28;20025;-81
2023/07/07 11:00:32;;;;;;;4.22;2.05;;;;;;;33.56;24.54;101831.78;5023849;28;20096;-81
2023/07/07 11:03:27;;;;;;;4.30;1.83;;;;;;;33.73;24.01;101837.94;5027402;28;20036;-81
2023/07/07 11:06:02;;;;;;;2.90;2.20;;;;;;;33.06;21.66;101832.44;5025787;28;20026;-81
2023/07/07 11:08:59;;;;;;;4.97;2.00;;;;;;;33.54;24.46;101839.38;5014548;28;20092;-81
2023/07/07 11:11:51;;;;;;;4.05;2.30;;;;;;;34.19;22.67;101834.97;5020711;28;20140;-81
2023/07/07 11:14:32;;;;;;;4.32;2.20;;;;;;;34.53;22.59;101822.47;5013539;28;20044;-81
2023/07/07 11:17:08;;;;;;;3.72;2.10;;;;;;;34.65;22.76;101832.75;5011421;28;20087;-81
2023/07/07 11:19:39;;;;;;;3.75;2.00;;;;;;;34.88;21.49;101826.19;5020772;28;20032;-81
2023/07/07 11:22:43;;;;;;;3.88;2.40;;;;;;;35.14;22.31;101822.84;5014896;28;20034;-80
2023/07/07 11:25:42;;;;;;;2.50;2.00;;;;;;;34.91;23.03;101821.16;5010710;28;20121;-81
2023/07/07 11:28:18;;;;;;;2.60;1.95;;;;;;;34.61;22.75;101814.97;5015036;28;20036;-80
2023/07/07 11:31:05;;;;;;;4.05;2.00;;;;;;;34.62;22.98;101824.06;5012882;28;20555;-83
2023/07/07 11:33:57;;;;;;;3.50;2.20;;;;;;;34.95;22.21;101811.47;5024419;28;20049;-82
2023/07/07 11:36:37;;;;;;;4.88;2.05;;;;;;;35.23;23.52;101807.88;5022394;28;20060;-82